Time;durP1;ratioP1;P1;durP2;ratioP2;P2;SDS_P1;SDS_P2;PMS_P1;PMS_P2;Temp;Humidity;BMP_temperature;BMP_pressure;BME280_temperature;BME280_humidity;BME280_pressure;Samples;Min_cycle;Max_cycle;Signal;HPM_P1;HPM_P2
2021/12/27 00:01:33;;;;;;;4.95;3.15;;;;;;;-11.87;75.16;99286.31;6169479;23;20077;-78
2021/12/27 00:03:59;;;;;;;3.80;3.50;;;;;;;-12.01;75.42;99282.63;6218654;23;20016;-79
2021/12/27 00:06:30;;;;;;;2.40;2.30;;;;;;;-12.01;75.42;99291.81;6217521;23;20046;-78
2021/12/27 00:08:56;;;;;;;5.32;4.38;;;;;;;-12.09;76.14;99288.25;6243268;22;20024;-78
2021/12/27 00:11:22;;;;;;;3.85;3.28;;;;;;;-12.06;76.20;99303.41;6216434;23;20506;-78
2021/12/27 00:13:48;;;;;;;2.97;2.78;;;;;;;-12.16;75.61;99292.28;6193868;23;20023;-79
2021/12/27 00:16:14;;;;;;;3.20;2.97;;;;;;;-12.13;75.78;99302.41;6219259;23;20059;-81
2021/12/27 00:18:41;;;;;;;3.45;3.28;;;;;;;-12.20;75.87;99298.88;6217951;23;20410;-80
2021/12/27 00:21:07;;;;;;;7.13;2.30;;;;;;;-12.18;76.02;99317.41;6218381;23;20040;-78
2021/12/27 00:23:33;;;;;;;2.75;2.65;;;;;;;-12.25;76.71;99314.66;6194090;23;20052;-78
2021/12/27 00:25:59;;;;;;;4.25;3.95;;;;;;;-12.23;77.06;99328.97;6217696;23;20016;-79
2021/12/27 00:28:27;;;;;;;3.85;2.90;;;;;;;-12.21;76.71;99334.06;6218675;23;20016;-73
2021/12/27 00:30:53;;;;;;;3.72;3.42;;;;;;;-12.19;76.64;99324.88;6217826;23;20020;-78
2021/12/27 00:33:26;;;;;;;3.10;2.90;;;;;;;-12.23;76.98;99323.94;6242880;23;20012;-79
2021/12/27 00:35:52;;;;;;;3.50;2.47;;;;;;;-12.36;76.32;99304.31;6219118;23;20471;-79
2021/12/27 00:38:18;;;;;;;3.28;3.08;;;;;;;-12.37;77.21;99317.72;6217871;23;20456;-79
2021/12/27 00:40:44;;;;;;;3.13;2.90;;;;;;;-12.40;77.40;99326.84;6217124;23;20083;-79
2021/12/27 00:43:10;;;;;;;2.70;2.60;;;;;;;-12.42;77.22;99323.41;6242140;23;20020;-78
2021/12/27 00:45:36;;;;;;;2.80;2.63;;;;;;;-12.49;77.59;99324.06;6243298;23;20016;-79
2021/12/27 00:48:05;;;;;;;2.25;2.15;;;;;;;-12.54;77.70;99328.13;6218911;23;20016;-80
2021/12/27 00:50:31;;;;;;;4.78;2.53;;;;;;;-12.45;77.58;99348.47;6170074;23;20024;-80
2021/12/27 00:52:57;;;;;;;5.15;3.67;;;;;;;-12.56;77.87;99334.78;6168742;23;20443;-78
2021/12/27 00:55:23;;;;;;;3.88;3.10;;;;;;;-12.48;77.08;99343.34;6219116;23;20289;-79
2021/12/27 00:57:52;;;;;;;2.28;2.17;;;;;;;-12.46;77.85;99339.22;6247344;23;20583;-78
2021/12/27 01:00:20;;;;;;;3.20;3.00;;;;;;;-12.50;77.00;99339.97;6246080;22;20020;-79
2021/12/27 01:02:46;;;;;;;3.70;3.40;;;;;;;-12.42;78.07;99353.56;6243748;23;20211;-79
2021/12/27 01:05:12;;;;;;;3.35;3.13;;;;;;;-12.40;77.14;99354.50;6218767;23;20376;-79
2021/12/27 01:07:42;;;;;;;3.10;2.90;;;;;;;-12.36;77.56;99359.63;6244329;23;20020;-79
2021/12/27 01:12:48;;;;;;;3.08;2.88;;;;;;;-12.26;77.99;99371.63;6225374;23;20020;-79
2021/12/27 01:17:42;;;;;;;2.95;2.80;;;;;;;-12.12;77.55;99368.63;6220148;23;20023;-78
2021/12/27 01:20:11;;;;;;;3.15;2.95;;;;;;;-12.09;76.77;99379.63;6244240;23;20020;-79
2021/12/27 01:22:38;;;;;;;4.00;3.70;;;;;;;-12.18;77.12;99374.38;6220208;23;20059;-77
2021/12/27 01:25:06;;;;;;;2.75;2.58;;;;;;;-12.13;77.37;99380.34;6245348;23;20107;-79
2021/12/27 01:27:32;;;;;;;2.47;2.38;;;;;;;-12.09;76.86;99373.75;6220558;23;20020;-79
2021/12/27 01:29:59;;;;;;;1.95;1.92;;;;;;;-12.15;77.35;99353.47;6249659;22;20321;-79
2021/12/27 01:32:29;;;;;;;3.85;3.55;;;;;;;-12.15;77.06;99356.84;6224199;23;20027;-79
2021/12/27 01:34:56;;;;;;;3.77;3.57;;;;;;;-12.07;77.43;99392.25;6199667;23;20022;-79
2021/12/27 01:37:22;;;;;;;3.35;3.17;;;;;;;-12.12;77.95;99382.06;6220969;23;20023;-79
2021/12/27 01:39:48;;;;;;;3.53;3.33;;;;;;;-11.98;77.32;99407.59;6248391;23;20353;-79
2021/12/27 01:42:14;;;;;;;3.10;2.92;;;;;;;-12.09;77.52;99391.34;6178414;23;20455;-80
2021/12/27 01:44:41;;;;;;;3.50;3.20;;;;;;;-12.03;78.23;99402.44;6231536;23;20016;-80
2021/12/27 01:47:09;;;;;;;3.53;3.33;;;;;;;-12.03;77.48;99399.91;6250791;22;20110;-79
2021/12/27 01:49:37;;;;;;;2.63;2.45;;;;;;;-12.24;78.00;99359.13;6198275;23;20020;-80
2021/12/27 01:52:04;;;;;;;2.78;2.67;;;;;;;-12.05;77.64;99386.47;6223600;23;20111;-80
2021/12/27 01:54:30;;;;;;;3.97;3.63;;;;;;;-12.03;77.56;99404.09;6248876;23;20090;-80
2021/12/27 01:56:56;;;;;;;3.00;2.88;;;;;;;-12.04;77.52;99395.69;6224725;23;20020;-80
2021/12/27 01:59:22;;;;;;;3.13;2.92;;;;;;;-12.02;78.11;99396.59;6176427;23;20374;-79
2021/12/27 02:01:48;;;;;;;3.67;3.38;;;;;;;-11.97;77.56;99410.13;6223047;23;20020;-79
2021/12/27 02:04:14;;;;;;;3.67;3.40;;;;;;;-11.99;77.58;99409.25;6193457;23;20023;-79
2021/12/27 02:06:41;;;;;;;2.50;2.40;;;;;;;-11.96;77.52;99411.00;6218598;23;20031;-78
2021/12/27 02:09:07;;;;;;;2.78;2.58;;;;;;;-11.87;78.54;99427.19;6218635;23;20042;-78
2021/12/27 02:11:34;;;;;;;3.20;3.00;;;;;;;-11.89;77.70;99431.31;6244739;23;20464;-79
2021/12/27 02:14:05;;;;;;;3.60;3.30;;;;;;;-11.84;77.53;99422.22;6245766;23;20368;-79
2021/12/27 02:16:31;;;;;;;3.72;3.45;;;;;;;-11.85;78.60;99425.56;6243448;23;20020;-79
2021/12/27 02:19:00;;;;;;;4.35;3.35;;;;;;;-11.86;78.03;99428.88;6193502;23;20460;-79
2021/12/27 02:21:27;;;;;;;2.67;2.50;;;;;;;-11.89;78.62;99433.84;6194276;23;20023;-79
2021/12/27 02:23:54;;;;;;;4.40;3.08;;;;;;;-11.87;78.89;99432.22;6245638;23;20452;-79
2021/12/27 02:26:21;;;;;;;2.97;2.78;;;;;;;-11.85;78.90;99434.78;6243247;23;20016;-78
2021/12/27 02:28:47;;;;;;;3.13;2.92;;;;;;;-11.95;78.14;99423.63;6243352;23;20027;-78
2021/12/27 02:31:16;;;;;;;3.00;2.80;;;;;;;-11.87;78.18;99422.16;6243775;23;20020;-78
2021/12/27 02:33:42;;;;;;;3.13;2.83;;;;;;;-11.81;77.85;99437.41;6243013;23;20047;-79
2021/12/27 02:36:09;;;;;;;2.40;2.28;;;;;;;-11.77;78.62;99454.28;6217907;23;20016;-76
2021/12/27 02:38:36;;;;;;;2.83;2.63;;;;;;;-11.78;78.16;99447.53;6216938;23;20028;-77
2021/12/27 02:41:03;;;;;;;2.83;2.67;;;;;;;-11.73;77.33;99463.63;6192071;23;20051;-77
2021/12/27 02:43:30;;;;;;;31.33;4.05;;;;;;;-11.78;77.60;99464.31;6194823;23;20028;-78
2021/12/27 02:46:02;;;;;;;2.72;2.55;;;;;;;-11.72;77.95;99467.84;6220817;23;20020;-79
2021/12/27 02:48:37;;;;;;;5.82;2.80;;;;;;;-11.70;77.55;99470.41;6220804;23;20012;-79
2021/12/27 02:51:04;;;;;;;4.03;3.28;;;;;;;-11.71;77.70;99476.22;6193285;23;20518;-79
2021/12/27 02:53:30;;;;;;;2.95;2.75;;;;;;;-11.72;78.04;99472.88;6200562;23;20031;-79
2021/12/27 02:55:57;;;;;;;2.90;2.70;;;;;;;-11.68;78.19;99478.84;6251518;23;20115;-81
2021/12/27 02:58:23;;;;;;;3.60;3.35;;;;;;;-11.75;77.88;99477.84;6201399;23;20063;-79
2021/12/27 03:00:58;;;;;;;3.40;3.10;;;;;;;-11.67;78.21;99486.41;6248634;23;20107;-75
2021/12/27 03:03:24;;;;;;;2.72;2.53;;;;;;;-11.69;77.90;99483.00;6215805;23;20024;-74
2021/12/27 03:05:52;;;;;;;3.60;3.30;;;;;;;-11.66;77.85;99492.28;6215700;23;20016;-76
2021/12/27 03:08:18;;;;;;;4.57;3.47;;;;;;;-11.80;78.81;99471.81;6168325;23;20087;-76
2021/12/27 03:10:49;;;;;;;4.05;3.75;;;;;;;-11.63;78.47;99510.00;6217349;23;20020;-75
2021/12/27 03:13:20;;;;;;;6.82;4.38;;;;;;;-11.69;78.29;99498.09;6217258;23;20027;-75
2021/12/27 03:15:56;;;;;;;2.97;2.80;;;;;;;-11.69;78.60;99488.03;6245218;23;20039;-74
2021/12/27 03:18:22;;;;;;;3.15;2.95;;;;;;;-11.59;78.74;99514.31;6145553;23;20027;-76
2021/12/27 03:20:51;;;;;;;3.13;2.92;;;;;;;-11.63;78.57;99498.25;6167592;23;20024;-75
2021/12/27 03:23:22;;;;;;;3.95;3.70;;;;;;;-11.59;77.96;99499.19;6215945;23;20030;-75
2021/12/27 03:25:48;;;;;;;4.45;3.53;;;;;;;-11.65;78.40;99492.31;6214969;23;20016;-75
2021/12/27 03:28:17;;;;;;;2.53;2.42;;;;;;;-11.56;79.05;99513.53;6189721;23;20028;-75
2021/12/27 03:30:45;;;;;;;3.70;3.50;;;;;;;-11.52;78.30;99510.28;6216362;23;20028;-75
2021/12/27 03:33:12;;;;;;;2.53;2.42;;;;;;;-11.57;78.23;99501.75;6241313;23;20027;-75
2021/12/27 03:35:40;;;;;;;4.18;3.88;;;;;;;-11.53;77.93;99499.34;6241429;23;20078;-73
2021/12/27 03:38:10;;;;;;;4.07;3.78;;;;;;;-11.50;78.38;99508.66;6214915;23;20070;-73
2021/12/27 03:40:37;;;;;;;2.70;2.55;;;;;;;-11.43;78.21;99523.09;6241128;23;20048;-72
2021/12/27 03:43:03;;;;;;;4.72;4.32;;;;;;;-11.43;78.06;99529.00;6241474;23;20103;-73
2021/12/27 03:45:31;;;;;;;3.75;3.50;;;;;;;-11.40;78.87;99531.59;6249083;23;20027;-72
2021/12/27 03:47:57;;;;;;;2.92;2.80;;;;;;;-11.38;78.64;99521.56;6222861;23;20024;-73
2021/12/27 03:50:25;;;;;;;3.72;3.40;;;;;;;-11.37;78.94;99540.88;6250689;23;20035;-73
2021/12/27 03:52:54;;;;;;;3.30;3.13;;;;;;;-11.35;78.23;99534.25;6251067;23;20016;-75
2021/12/27 03:55:20;;;;;;;3.55;2.75;;;;;;;-11.38;78.50;99537.50;6226981;23;20561;-74
2021/12/27 03:57:54;;;;;;;3.67;3.33;;;;;;;-11.35;78.58;99539.28;6255036;23;20472;-73
2021/12/27 04:02:51;;;;;;;3.72;3.47;;;;;;;-11.41;80.70;99544.13;6229005;23;20026;-75
2021/12/27 04:05:18;;;;;;;3.75;3.22;;;;;;;-11.45;81.38;99542.38;6254909;23;20016;-75
2021/12/27 04:07:46;;;;;;;2.88;2.70;;;;;;;-11.44;81.86;99554.13;6226186;23;20016;-75
2021/12/27 04:10:14;;;;;;;3.55;3.25;;;;;;;-11.45;82.15;99552.44;6254732;22;20020;-75
2021/12/27 04:12:40;;;;;;;3.35;3.15;;;;;;;-11.49;81.36;99545.59;6226309;23;20046;-77
2021/12/27 04:15:08;;;;;;;4.32;3.92;;;;;;;-11.45;81.59;99553.25;6252774;23;20016;-74
2021/12/27 04:17:34;;;;;;;4.72;4.43;;;;;;;-11.39;81.44;99557.63;6255709;23;20020;-75
2021/12/27 04:20:00;;;;;;;4.28;3.97;;;;;;;-11.39;80.37;99566.03;6256233;23;20016;-75
2021/12/27 04:22:33;;;;;;;4.32;3.92;;;;;;;-11.36;80.02;99560.22;6254363;23;20024;-75
2021/12/27 04:25:00;;;;;;;3.97;3.67;;;;;;;-11.33;79.65;99567.88;6253481;23;20012;-76
2021/12/27 04:27:26;;;;;;;3.78;3.58;;;;;;;-11.27;79.03;99568.03;6245329;23;20107;-76
2021/12/27 04:29:52;;;;;;;3.00;2.80;;;;;;;-11.32;79.79;99564.53;6239909;22;20020;-77
2021/12/27 04:32:18;;;;;;;3.80;3.50;;;;;;;-11.26;79.17;99577.28;6243999;22;20016;-76
2021/12/27 04:34:45;;;;;;;2.70;2.55;;;;;;;-11.29;78.79;99579.72;6240077;23;20028;-75
2021/12/27 04:37:13;;;;;;;6.53;3.08;;;;;;;-11.29;78.63;99587.28;6239628;22;20023;-75
2021/12/27 04:39:39;;;;;;;3.83;3.13;;;;;;;-11.25;79.33;99589.06;6237954;23;20075;-75
2021/12/27 04:42:09;;;;;;;4.07;3.78;;;;;;;-11.27;78.72;99588.16;6239151;22;20031;-76
2021/12/27 04:44:35;;;;;;;3.65;3.33;;;;;;;-11.27;78.98;99573.06;6214890;23;20024;-76
2021/12/27 04:47:01;;;;;;;5.32;4.50;;;;;;;-11.31;78.62;99587.22;6240340;23;20070;-76
2021/12/27 04:49:30;;;;;;;4.25;3.97;;;;;;;-11.29;78.67;99589.81;6240738;23;20016;-75
2021/12/27 04:51:56;;;;;;;3.65;3.45;;;;;;;-11.29;78.67;99608.28;6240628;23;20065;-76
2021/12/27 04:54:22;;;;;;;4.00;3.70;;;;;;;-11.36;78.75;99590.44;6242620;23;20016;-76
2021/12/27 04:56:48;;;;;;;5.20;4.70;;;;;;;-11.31;79.49;99606.50;6242790;22;20016;-74
2021/12/27 04:59:14;;;;;;;3.72;3.35;;;;;;;-11.30;79.16;99604.06;6218005;23;20054;-76
2021/12/27 05:01:41;;;;;;;3.67;3.47;;;;;;;-11.29;78.48;99599.88;6217640;23;20104;-74
2021/12/27 05:04:07;;;;;;;3.88;3.53;;;;;;;-11.33;78.95;99615.72;6243018;23;20039;-74
2021/12/27 05:06:36;;;;;;;5.10;4.70;;;;;;;-11.36;78.80;99618.13;6244452;23;20024;-77
2021/12/27 05:09:02;;;;;;;5.03;4.60;;;;;;;-11.34;78.35;99631.63;6242358;23;20020;-75
2021/12/27 05:11:30;;;;;;;3.88;3.58;;;;;;;-11.34;79.22;99641.69;6216213;23;20155;-74
2021/12/27 05:13:56;;;;;;;2.33;2.22;;;;;;;-11.37;78.99;99642.47;6234079;23;20044;-79
2021/12/27 05:16:22;;;;;;;4.57;4.18;;;;;;;-11.36;78.93;99635.75;6242156;23;20150;-79
2021/12/27 05:18:50;;;;;;;4.13;3.83;;;;;;;-11.38;79.39;99629.81;6200488;23;20024;-81
2021/12/27 05:21:16;;;;;;;4.20;3.80;;;;;;;-11.39;78.77;99645.75;6197068;23;20020;-80
2021/12/27 05:23:42;;;;;;;2.72;2.55;;;;;;;-11.45;79.00;99638.03;6257134;23;20415;-80
2021/12/27 05:26:09;;;;;;;6.70;6.10;;;;;;;-11.38;78.85;99640.75;6260299;23;20016;-78
2021/12/27 05:28:37;;;;;;;3.30;3.10;;;;;;;-11.43;78.72;99646.47;6262969;23;20402;-78
2021/12/27 05:31:03;;;;;;;4.25;3.40;;;;;;;-11.42;78.77;99643.16;6241641;23;20042;-80
2021/12/27 05:33:31;;;;;;;3.85;3.30;;;;;;;-11.41;78.23;99649.88;6238442;23;20011;-77
2021/12/27 05:35:58;;;;;;;2.85;2.63;;;;;;;-11.45;78.65;99653.13;6240514;23;19997;-80
2021/12/27 05:38:24;;;;;;;3.88;3.58;;;;;;;-11.48;79.34;99658.09;6190511;23;20026;-79
2021/12/27 05:40:50;;;;;;;3.75;3.47;;;;;;;-11.48;79.41;99668.16;6238976;23;20027;-79
2021/12/27 05:43:16;;;;;;;3.42;3.20;;;;;;;-11.49;78.38;99662.25;6258113;22;20016;-75
2021/12/27 05:45:42;;;;;;;4.75;4.10;;;;;;;-11.52;79.03;99671.38;6254038;23;20047;-74
2021/12/27 05:48:08;;;;;;;3.83;3.55;;;;;;;-11.57;79.81;99677.94;6253974;23;20027;-73
2021/12/27 05:50:34;;;;;;;3.88;3.67;;;;;;;-11.61;79.43;99674.47;6255613;23;20483;-74
2021/12/27 05:53:01;;;;;;;3.83;3.58;;;;;;;-11.63;79.04;99679.47;6228734;23;20099;-75
2021/12/27 05:55:28;;;;;;;2.83;2.70;;;;;;;-11.65;79.29;99678.56;6253926;23;20015;-77
2021/12/27 05:57:54;;;;;;;3.58;3.35;;;;;;;-11.65;79.34;99681.06;6202807;23;20099;-79
2021/12/27 06:00:20;;;;;;;4.95;4.60;;;;;;;-11.64;78.94;99697.88;6252403;22;20066;-79
2021/12/27 06:02:51;;;;;;;3.60;3.30;;;;;;;-11.65;78.83;99688.63;6226213;23;20395;-76
2021/12/27 06:05:17;;;;;;;6.38;5.15;;;;;;;-11.61;79.13;99708.88;6246906;23;20020;-76
2021/12/27 06:07:43;;;;;;;4.45;4.13;;;;;;;-11.63;78.66;99708.81;6246360;23;20016;-76
2021/12/27 06:14:38;;;;;;;4.20;4.00;;;;;;;-11.69;79.87;99722.06;6244714;23;20012;-79
2021/12/27 06:17:08;;;;;;;3.90;3.65;;;;;;;-11.70;80.48;99727.91;6258548;23;20047;-82
2021/12/27 06:19:41;;;;;;;4.20;3.72;;;;;;;-11.67;79.57;99727.13;6256982;23;20017;-81
2021/12/27 06:22:07;;;;;;;8.57;4.50;;;;;;;-11.65;79.90;99733.91;6175685;23;20028;-79
2021/12/27 06:24:33;;;;;;;4.47;3.58;;;;;;;-11.81;80.55;99706.59;6249102;23;20027;-79
2021/12/27 06:27:05;;;;;;;4.55;4.22;;;;;;;-11.69;79.38;99729.63;6233367;23;20076;-81
2021/12/27 06:29:31;;;;;;;4.35;3.95;;;;;;;-11.64;79.90;99722.19;6204251;23;20313;-80
2021/12/27 06:32:00;;;;;;;7.07;4.45;;;;;;;-11.74;79.51;99720.22;6253732;23;20016;-80
2021/12/27 06:34:27;;;;;;;4.97;4.40;;;;;;;-11.79;78.89;99697.47;6197212;23;20027;-79
2021/12/27 06:36:54;;;;;;;4.10;3.45;;;;;;;-11.76;78.39;99706.75;6172227;23;20028;-79
2021/12/27 06:39:23;;;;;;;4.22;3.92;;;;;;;-11.62;78.02;99725.63;6218892;23;20048;-77
2021/12/27 06:41:49;;;;;;;4.90;4.50;;;;;;;-11.77;78.18;99710.94;6217569;23;20044;-79
2021/12/27 06:44:16;;;;;;;3.72;3.53;;;;;;;-11.63;77.86;99739.00;6241887;23;20031;-78
2021/12/27 06:46:42;;;;;;;6.53;5.90;;;;;;;-11.71;79.15;99728.72;6243764;22;20399;-77
2021/12/27 06:49:08;;;;;;;3.60;3.30;;;;;;;-11.61;78.77;99744.09;6241231;23;20012;-78
2021/12/27 06:51:34;;;;;;;3.88;3.58;;;;;;;-11.62;77.78;99735.69;6216028;23;20099;-77
2021/12/27 06:54:03;;;;;;;6.80;6.20;;;;;;;-11.62;77.15;99750.78;6216511;23;20162;-79
2021/12/27 06:56:30;;;;;;;5.68;5.28;;;;;;;-11.61;77.65;99751.66;6215520;23;20091;-76
2021/12/27 06:58:57;;;;;;;2.70;2.53;;;;;;;-11.57;77.91;99761.00;6243015;22;20020;-78
2021/12/27 07:01:25;;;;;;;4.40;4.10;;;;;;;-11.59;78.42;99768.50;6218282;23;20491;-82
2021/12/27 07:03:51;;;;;;;3.83;3.63;;;;;;;-11.57;77.86;99771.06;6247908;22;20020;-77
2021/12/27 07:06:17;;;;;;;3.13;2.92;;;;;;;-11.56;77.88;99770.25;6191421;23;20035;-78
2021/12/27 07:08:47;;;;;;;6.00;5.50;;;;;;;-11.59;77.89;99755.06;6216467;23;20023;-77
2021/12/27 07:11:16;;;;;;;3.92;3.63;;;;;;;-11.55;78.49;99766.94;6215580;23;20023;-79
2021/12/27 07:13:42;;;;;;;5.00;4.55;;;;;;;-11.55;77.59;99777.00;6191300;23;20044;-77
2021/12/27 07:16:08;;;;;;;3.25;3.05;;;;;;;-11.51;78.26;99783.84;6214713;23;20024;-77
2021/12/27 07:18:37;;;;;;;6.10;5.32;;;;;;;-11.57;77.41;99759.34;6240089;23;20024;-77
2021/12/27 07:21:03;;;;;;;3.58;3.38;;;;;;;-11.57;77.09;99768.53;6240167;23;20020;-77
2021/12/27 07:23:30;;;;;;;6.15;5.70;;;;;;;-11.65;77.99;99774.19;6194062;23;20405;-78
2021/12/27 07:25:58;;;;;;;5.15;4.63;;;;;;;-11.63;77.39;99760.00;6242220;22;20016;-75
2021/12/27 07:28:24;;;;;;;4.90;4.50;;;;;;;-11.63;78.04;99785.16;6215521;23;20023;-78
2021/12/27 07:30:50;;;;;;;5.40;4.90;;;;;;;-11.68;77.81;99784.16;6188488;23;20221;-77
2021/12/27 07:33:16;;;;;;;4.95;4.45;;;;;;;-11.62;77.37;99781.00;6214308;23;20102;-77
2021/12/27 07:35:47;;;;;;;5.00;4.60;;;;;;;-11.72;77.67;99769.81;6242097;22;20448;-79
2021/12/27 07:38:13;;;;;;;4.82;4.50;;;;;;;-11.63;77.43;99795.25;6215524;23;20042;-77
2021/12/27 07:40:39;;;;;;;4.45;4.13;;;;;;;-11.60;77.28;99770.97;6215907;23;20039;-79
2021/12/27 07:43:06;;;;;;;7.78;5.10;;;;;;;-11.66;77.28;99792.63;6242028;23;20151;-79
2021/12/27 07:45:33;;;;;;;4.45;4.10;;;;;;;-11.61;76.35;99787.72;6217233;23;20039;-78
2021/12/27 07:47:59;;;;;;;3.92;3.63;;;;;;;-11.57;76.33;99809.66;6219915;23;20043;-77
2021/12/27 07:50:28;;;;;;;4.65;4.35;;;;;;;-11.50;76.22;99823.31;6191352;23;20170;-77
2021/12/27 07:52:55;;;;;;;3.63;3.38;;;;;;;-11.54;76.92;99824.88;6240679;23;20024;-79
2021/12/27 07:55:26;;;;;;;6.55;3.13;;;;;;;-11.40;76.84;99830.34;6141481;23;20158;-78
2021/12/27 07:57:52;;;;;;;3.67;3.47;;;;;;;-11.65;76.68;99806.06;6216817;23;20578;-78
2021/12/27 08:00:18;;;;;;;2.95;2.80;;;;;;;-11.51;76.68;99844.25;6240752;23;20016;-78
2021/12/27 08:02:47;;;;;;;3.42;3.22;;;;;;;-11.56;76.89;99840.75;6214534;23;20095;-77
2021/12/27 08:05:14;;;;;;;4.50;4.20;;;;;;;-11.56;77.49;99850.81;6240911;23;20436;-76
2021/12/27 08:07:43;;;;;;;2.97;2.78;;;;;;;-11.55;76.69;99847.50;6242097;23;20053;-77
2021/12/27 08:10:10;;;;;;;4.05;3.60;;;;;;;-11.61;77.74;99855.69;6214344;23;20019;-76
2021/12/27 08:12:36;;;;;;;9.00;4.72;;;;;;;-11.55;77.37;99855.03;6241604;23;20044;-78
2021/12/27 08:15:03;;;;;;;6.70;3.85;;;;;;;-11.58;77.47;99853.25;6241185;23;20016;-77
2021/12/27 08:17:30;;;;;;;4.82;3.50;;;;;;;-11.47;76.74;99851.97;6214743;23;20012;-76
2021/12/27 08:19:56;;;;;;;5.55;5.07;;;;;;;-11.52;76.82;99845.06;6215138;23;20460;-77
2021/12/27 08:22:22;;;;;;;3.95;3.70;;;;;;;-11.49;76.63;99852.72;6189081;23;20066;-75
2021/12/27 08:24:49;;;;;;;4.82;4.00;;;;;;;-11.61;76.87;99842.25;6138842;23;20467;-75
2021/12/27 08:27:15;;;;;;;3.55;3.25;;;;;;;-11.24;76.88;99850.16;6241181;23;20020;-77
2021/12/27 08:29:42;;;;;;;5.72;5.28;;;;;;;-11.01;74.70;99863.47;6167916;23;20020;-75
2021/12/27 08:32:08;;;;;;;3.45;3.25;;;;;;;-11.25;74.20;99853.47;6192747;23;20091;-76
2021/12/27 08:34:34;;;;;;;3.92;3.63;;;;;;;-11.48;75.60;99860.31;6215896;23;20016;-75
2021/12/27 08:37:00;;;;;;;3.90;3.60;;;;;;;-11.44;74.86;99846.16;6239276;22;20070;-76
2021/12/27 08:39:26;;;;;;;3.97;2.75;;;;;;;-11.44;75.26;99858.75;6236724;23;20078;-75
2021/12/27 08:41:52;;;;;;;11.07;4.05;;;;;;;-11.41;74.29;99851.28;6238165;22;20034;-76
2021/12/27 08:44:19;;;;;;;3.75;3.55;;;;;;;-11.31;74.91;99864.22;6211680;23;20024;-76
2021/12/27 08:46:45;;;;;;;3.08;2.88;;;;;;;-11.11;73.57;99854.78;6237308;23;20028;-76
2021/12/27 08:49:12;;;;;;;3.03;2.83;;;;;;;-10.35;71.04;99855.38;6237427;23;20020;-75
2021/12/27 08:51:37;;;;;;;6.18;3.35;;;;;;;-10.66;71.88;99856.16;6212365;23;20016;-76
2021/12/27 08:54:06;;;;;;;4.18;3.90;;;;;;;-9.67;68.65;99852.09;6237662;23;20058;-76
2021/12/27 08:56:33;;;;;;;5.45;4.97;;;;;;;-8.12;64.25;99845.44;6238326;22;20680;-75
2021/12/27 08:58:59;;;;;;;5.20;4.80;;;;;;;-7.97;61.70;99843.19;6211939;23;20016;-76
2021/12/27 09:01:26;;;;;;;4.45;4.07;;;;;;;-7.77;60.38;99841.88;6240744;23;20270;-76
2021/12/27 09:03:55;;;;;;;3.97;3.58;;;;;;;-8.11;60.79;99835.31;6221552;23;20375;-75
2021/12/27 09:06:21;;;;;;;8.68;4.72;;;;;;;-8.30;62.33;99837.50;6224880;23;20020;-76
2021/12/27 09:08:47;;;;;;;6.47;4.65;;;;;;;-7.87;61.36;99832.41;6250184;23;20016;-77
2021/12/27 09:11:13;;;;;;;3.40;3.15;;;;;;;-7.95;60.19;99821.28;6253848;23;20281;-76
2021/12/27 09:13:40;;;;;;;2.95;2.75;;;;;;;-7.32;58.94;99841.78;6247453;23;20020;-76
2021/12/27 09:16:10;;;;;;;5.03;4.47;;;;;;;-8.17;60.85;99841.94;6250899;23;20055;-76
2021/12/27 09:18:37;;;;;;;6.70;5.22;;;;;;;-9.18;64.33;99855.81;6230329;23;20016;-76
2021/12/27 09:21:03;;;;;;;3.53;3.22;;;;;;;-9.95;67.67;99866.50;6254211;22;20032;-76
2021/12/27 09:23:30;;;;;;;5.57;5.07;;;;;;;-10.17;69.15;99860.03;6226902;23;20287;-75
2021/12/27 09:25:56;;;;;;;2.80;2.60;;;;;;;-10.36;70.32;99858.69;6254502;23;20028;-76
2021/12/27 09:28:22;;;;;;;6.68;6.10;;;;;;;-10.39;70.67;99860.25;6250619;23;20099;-76
2021/12/27 09:30:48;;;;;;;6.97;4.03;;;;;;;-10.47;70.97;99864.25;6225260;23;20027;-73
2021/12/27 09:33:14;;;;;;;8.07;6.25;;;;;;;-10.37;71.20;99861.19;6223434;23;20051;-76
2021/12/27 09:35:40;;;;;;;4.45;3.70;;;;;;;-10.50;70.96;99875.09;6249196;23;20058;-76
2021/12/27 09:38:11;;;;;;;7.95;6.85;;;;;;;-10.48;71.20;99873.47;6246393;23;20062;-76
2021/12/27 09:40:37;;;;;;;6.00;5.38;;;;;;;-10.43;71.42;99876.13;6247050;23;20035;-75
2021/12/27 09:43:04;;;;;;;5.32;3.78;;;;;;;-10.70;71.44;99869.47;6220902;23;20055;-75
2021/12/27 09:45:30;;;;;;;8.40;6.53;;;;;;;-10.64;72.03;99871.34;6247464;22;20038;-74
2021/12/27 09:47:56;;;;;;;8.65;7.70;;;;;;;-10.54;71.94;99868.28;6219314;23;20074;-76
2021/12/27 09:50:26;;;;;;;13.75;7.80;;;;;;;-10.55;72.04;99878.28;6246511;23;20024;-76
2021/12/27 09:52:53;;;;;;;9.73;5.78;;;;;;;-10.54;72.69;99872.44;6218576;23;20450;-75
2021/12/27 09:55:19;;;;;;;7.80;5.82;;;;;;;-10.50;72.35;99880.13;6217975;23;20027;-75
2021/12/27 09:57:46;;;;;;;14.30;6.82;;;;;;;-10.57;72.39;99873.22;6243850;23;20016;-76
2021/12/27 10:00:17;;;;;;;6.72;6.13;;;;;;;-10.46;72.13;99876.03;6217133;23;20103;-75
2021/12/27 10:02:45;;;;;;;2.72;2.55;;;;;;;-10.57;73.22;99879.94;6243859;23;20103;-75
2021/12/27 10:05:13;;;;;;;3.83;3.40;;;;;;;-10.59;73.28;99870.66;6215717;23;20511;-76
2021/12/27 10:07:43;;;;;;;4.38;3.75;;;;;;;-10.44;73.51;99884.50;6243949;23;20530;-75
2021/12/27 10:10:10;;;;;;;13.52;9.02;;;;;;;-10.44;73.01;99887.03;6243421;22;20020;-75
2021/12/27 10:12:39;;;;;;;15.02;5.35;;;;;;;-10.61;72.77;99877.31;6216745;23;20416;-76
2021/12/27 10:15:08;;;;;;;8.73;7.25;;;;;;;-10.52;73.34;99881.75;6216759;23;20024;-76
2021/12/27 10:17:37;;;;;;;9.25;7.53;;;;;;;-10.48;73.62;99883.56;6243283;22;20519;-75
2021/12/27 10:20:21;;;;;;;7.15;5.22;;;;;;;-10.47;73.51;99886.94;6242434;23;20413;-76
2021/12/27 10:22:49;;;;;;;9.65;8.13;;;;;;;-10.57;72.82;99887.50;6191679;23;20083;-76
2021/12/27 10:25:22;;;;;;;8.80;6.35;;;;;;;-10.52;73.70;99886.81;6241995;23;20035;-75
2021/12/27 10:27:50;;;;;;;5.72;5.15;;;;;;;-10.54;73.42;99888.44;6217044;23;20024;-74
2021/12/27 10:30:27;;;;;;;5.18;4.40;;;;;;;-10.47;73.18;99895.38;6241572;23;20359;-76
2021/12/27 10:33:12;;;;;;;6.80;4.97;;;;;;;-10.43;73.14;99881.16;6241711;23;20016;-75
2021/12/27 10:35:44;;;;;;;7.43;6.72;;;;;;;-10.55;73.74;99898.47;6217574;23;20078;-76
2021/12/27 10:38:25;;;;;;;4.05;3.55;;;;;;;-10.46;73.40;99892.03;6241595;23;20016;-76
2021/12/27 10:40:52;;;;;;;6.65;5.90;;;;;;;-10.40;72.89;99896.41;6216619;23;20024;-74
2021/12/27 10:43:31;;;;;;;6.25;4.85;;;;;;;-10.42;73.18;99898.88;6241086;23;20120;-75
2021/12/27 10:46:06;;;;;;;10.23;7.25;;;;;;;-10.42;73.38;99903.06;6219346;23;20020;-76
2021/12/27 10:48:34;;;;;;;7.55;6.13;;;;;;;-10.35;73.65;99904.94;6192824;23;20448;-75
2021/12/27 10:51:00;;;;;;;9.88;5.18;;;;;;;-10.39;73.46;99904.00;6241855;23;20020;-75
2021/12/27 10:53:26;;;;;;;5.55;4.93;;;;;;;-10.35;73.70;99908.34;6215920;23;20024;-76
2021/12/27 10:55:54;;;;;;;8.27;6.35;;;;;;;-10.32;73.47;99905.91;6215891;23;20023;-76
2021/12/27 10:58:23;;;;;;;4.35;4.05;;;;;;;-10.31;73.88;99906.75;6240790;23;20031;-76
2021/12/27 11:01:00;;;;;;;3.95;3.53;;;;;;;-10.23;73.25;99912.84;6216420;23;20371;-76
2021/12/27 11:03:39;;;;;;;6.25;5.07;;;;;;;-10.25;73.54;99891.78;6240735;23;20028;-76
2021/12/27 11:06:08;;;;;;;5.38;4.97;;;;;;;-10.20;72.97;99910.41;6217646;23;20016;-76
2021/12/27 11:08:34;;;;;;;5.78;5.18;;;;;;;-10.20;72.97;99905.38;6243356;22;20435;-76
2021/12/27 11:11:01;;;;;;;9.70;8.02;;;;;;;-10.39;72.95;99898.09;6242310;23;20368;-75
2021/12/27 11:13:27;;;;;;;7.63;6.68;;;;;;;-10.39;73.46;99900.63;6241075;23;20502;-75
2021/12/27 11:15:53;;;;;;;5.97;5.15;;;;;;;-10.38;74.07;99909.91;6216153;23;20031;-75
2021/12/27 11:18:20;;;;;;;5.38;4.85;;;;;;;-10.41;73.63;99897.22;6215931;23;20040;-75
2021/12/27 11:20:47;;;;;;;8.48;6.78;;;;;;;-10.38;73.82;99902.34;6241307;23;20020;-75
2021/12/27 11:23:14;;;;;;;4.53;4.22;;;;;;;-10.44;74.22;99899.66;6215613;23;20024;-75
2021/12/27 11:25:42;;;;;;;8.63;7.40;;;;;;;-10.50;74.26;99904.50;6191086;23;20016;-75
2021/12/27 11:28:37;;;;;;;10.75;5.15;;;;;;;-10.48;74.30;99907.94;6215957;23;20100;-75
2021/12/27 11:31:13;;;;;;;6.72;6.10;;;;;;;-10.46;74.20;99901.25;6216345;23;20012;-75
2021/12/27 11:33:52;;;;;;;5.10;4.57;;;;;;;-10.56;74.80;99900.13;6241838;23;20036;-75
2021/12/27 11:36:19;;;;;;;4.93;4.53;;;;;;;-10.56;74.70;99905.16;6233269;23;20023;-78
2021/12/27 11:38:45;;;;;;;5.45;4.88;;;;;;;-10.57;75.38;99905.13;6187884;23;20356;-77